createdAt,value
2022-11-05T00:01:42.523Z,3.83
2022-11-05T00:05:06.704Z,5.55
2022-11-05T00:08:30.813Z,3.75
2022-11-05T00:11:55.393Z,3.80
2022-11-05T00:15:19.375Z,3.97
2022-11-05T00:18:24.865Z,3.75
2022-11-05T00:21:49.206Z,4.50
2022-11-05T00:25:13.117Z,4.07
2022-11-05T00:28:18.391Z,3.95
2022-11-05T00:31:24.303Z,4.32
2022-11-05T00:34:29.939Z,4.40
2022-11-05T00:37:36.518Z,5.15
2022-11-05T00:40:42.163Z,4.85
2022-11-05T00:44:06.266Z,4.18
2022-11-05T00:47:30.330Z,4.45
2022-11-05T00:50:36.246Z,3.97
2022-11-05T00:53:41.818Z,3.92
2022-11-05T00:56:47.468Z,3.95
2022-11-05T00:59:53.027Z,3.88
2022-11-05T01:03:02.027Z,3.80
2022-11-05T01:06:13.434Z,4.05
2022-11-05T01:12:24.244Z,3.33
2022-11-05T01:15:29.690Z,3.65
2022-11-05T01:18:37.714Z,4.47
2022-11-05T01:21:43.482Z,3.55
2022-11-05T01:24:48.587Z,4.57
2022-11-05T01:27:53.841Z,3.40
2022-11-05T01:30:59.517Z,3.28
2022-11-05T01:34:05.371Z,4.93
2022-11-05T01:37:11.059Z,4.32
2022-11-05T01:40:22.835Z,3.78
2022-11-05T01:43:54.687Z,4.18
2022-11-05T01:47:00.368Z,3.92
2022-11-05T01:50:11.972Z,3.67
2022-11-05T01:53:39.593Z,3.60
2022-11-05T01:56:56.885Z,4.07
2022-11-05T02:00:02.880Z,3.75
2022-11-05T02:03:19.869Z,3.65
2022-11-05T02:06:28.050Z,4.00
2022-11-05T02:09:52.623Z,5.25
2022-11-05T02:12:58.357Z,3.60
2022-11-05T02:16:24.610Z,4.60
2022-11-05T02:19:57.295Z,3.78
2022-11-05T02:23:24.799Z,4.03
2022-11-05T02:26:58.519Z,4.30
2022-11-05T02:30:25.847Z,3.83
2022-11-05T02:33:47.208Z,3.60
2022-11-05T02:37:05.794Z,3.40
2022-11-05T02:40:31.856Z,3.30
2022-11-05T02:44:06.387Z,3.40
2022-11-05T02:47:34.153Z,2.70
2022-11-05T02:51:17.521Z,2.92
2022-11-05T02:54:42.355Z,2.85
2022-11-05T02:57:48.391Z,2.53
2022-11-05T03:00:56.536Z,2.40
2022-11-05T03:04:07.274Z,2.33
2022-11-05T03:07:36.025Z,2.15
2022-11-05T03:10:55.163Z,2.20
2022-11-05T03:14:11.278Z,2.00
2022-11-05T03:18:15.059Z,2.30
2022-11-05T03:21:44.320Z,1.88
2022-11-05T03:24:55.851Z,2.30
2022-11-05T03:28:06.136Z,2.00
2022-11-05T03:31:14.666Z,1.70
2022-11-05T03:34:27.141Z,2.47
2022-11-05T03:37:36.698Z,1.88
2022-11-05T03:40:43.625Z,2.67
2022-11-05T03:43:53.878Z,2.30
2022-11-05T03:47:07.301Z,1.92
2022-11-05T03:50:21.865Z,2.03
2022-11-05T03:53:43.663Z,2.25
2022-11-05T04:00:22.347Z,1.98
2022-11-05T04:03:28.322Z,2.00
2022-11-05T04:06:52.292Z,1.67
2022-11-05T04:10:16.611Z,1.88
2022-11-05T04:13:25.047Z,1.98
2022-11-05T04:16:49.327Z,1.73
2022-11-05T04:20:13.382Z,1.80
2022-11-05T04:23:37.401Z,1.90
2022-11-05T04:26:44.684Z,1.30
2022-11-05T04:30:08.964Z,1.50
2022-11-05T04:33:16.639Z,1.33
2022-11-05T04:36:22.378Z,1.30
2022-11-05T04:39:27.539Z,1.15
2022-11-05T04:42:33.117Z,1.55
2022-11-05T04:45:39.077Z,2.17
2022-11-05T04:48:43.936Z,2.90
2022-11-05T04:51:49.330Z,1.40
2022-11-05T04:54:54.832Z,1.67
2022-11-05T04:58:00.476Z,1.85
2022-11-05T05:01:06.415Z,1.90
2022-11-05T05:04:12.114Z,1.17
2022-11-05T05:07:17.357Z,1.85
2022-11-05T05:10:23.025Z,1.88
2022-11-05T05:13:28.323Z,2.17
2022-11-05T05:16:33.844Z,2.10
2022-11-05T05:19:57.982Z,2.50
2022-11-05T05:23:04.205Z,1.83
2022-11-05T05:26:09.781Z,1.90
2022-11-05T05:29:16.717Z,2.10
2022-11-05T05:32:23.917Z,1.65
2022-11-05T05:35:29.350Z,2.42
2022-11-05T05:38:34.879Z,2.22
2022-11-05T05:41:40.419Z,1.90
2022-11-05T05:44:45.634Z,1.52
2022-11-05T05:47:51.008Z,1.80
2022-11-05T05:51:03.868Z,1.50
2022-11-05T05:54:12.028Z,1.55
2022-11-05T05:57:17.522Z,2.03
2022-11-05T06:00:23.006Z,1.60
2022-11-05T06:03:28.596Z,1.95
2022-11-05T06:06:33.691Z,2.95
2022-11-05T06:09:39.086Z,1.30
2022-11-05T06:12:44.497Z,1.52
2022-11-05T06:15:50.304Z,1.90
2022-11-05T06:18:55.290Z,1.88
2022-11-05T06:22:00.691Z,1.88
2022-11-05T06:25:07.292Z,1.58
2022-11-05T06:28:12.831Z,1.73
2022-11-05T06:31:18.441Z,2.20
2022-11-05T06:34:23.581Z,1.50
2022-11-05T06:37:29.223Z,1.33
2022-11-05T06:40:34.633Z,2.00
2022-11-05T06:43:40.333Z,2.10
2022-11-05T06:46:48.456Z,1.95
2022-11-05T06:49:54.546Z,1.95
2022-11-05T06:53:03.980Z,1.30
2022-11-05T06:56:10.074Z,3.17
2022-11-05T06:59:16.113Z,1.60
2022-11-05T07:02:21.409Z,1.60
2022-11-05T07:05:27.201Z,2.00
2022-11-05T07:08:34.502Z,2.05
2022-11-05T07:11:39.632Z,1.80
2022-11-05T07:14:45.088Z,15.38
2022-11-05T07:17:50.762Z,14.00
2022-11-05T07:20:56.203Z,3.47
2022-11-05T07:24:01.937Z,1.95
2022-11-05T07:27:07.452Z,3.53
2022-11-05T07:30:12.951Z,2.60
2022-11-05T07:33:18.023Z,2.55
2022-11-05T07:36:23.672Z,3.50
2022-11-05T07:39:29.477Z,2.38
2022-11-05T07:42:35.865Z,2.17
2022-11-05T07:45:41.470Z,2.33
2022-11-05T07:48:46.868Z,1.60
2022-11-05T07:51:52.567Z,1.38
2022-11-05T07:54:57.815Z,1.38
2022-11-05T07:58:04.906Z,2.03
2022-11-05T08:01:10.615Z,1.25
2022-11-05T08:04:16.514Z,1.33
2022-11-05T08:07:22.327Z,1.42
2022-11-05T08:10:29.076Z,0.93
2022-11-05T08:13:36.086Z,1.15
2022-11-05T08:16:42.016Z,1.48
2022-11-05T08:19:47.377Z,1.13
2022-11-05T08:22:52.809Z,0.88
2022-11-05T08:25:58.997Z,0.90
2022-11-05T08:29:04.085Z,0.98
2022-11-05T08:32:09.616Z,1.45
2022-11-05T08:35:15.120Z,1.77
2022-11-05T08:38:20.720Z,1.13
2022-11-05T08:41:26.284Z,1.33
2022-11-05T08:44:31.301Z,1.23
2022-11-05T08:47:36.414Z,0.90
2022-11-05T08:50:43.005Z,1.20
2022-11-05T08:53:48.724Z,1.10
2022-11-05T08:56:54.056Z,0.80
2022-11-05T08:59:59.612Z,1.60
2022-11-05T09:03:07.190Z,0.95
2022-11-05T09:06:12.741Z,0.70
2022-11-05T09:09:18.082Z,0.93
2022-11-05T09:12:23.377Z,1.70
2022-11-05T09:15:29.942Z,1.05
2022-11-05T09:18:35.401Z,0.80
2022-11-05T09:21:40.512Z,1.30
2022-11-05T09:24:45.603Z,0.88
2022-11-05T09:27:50.887Z,0.80
2022-11-05T09:30:56.001Z,0.70
2022-11-05T09:34:01.240Z,0.80
2022-11-05T09:37:06.577Z,0.80
2022-11-05T09:40:17.612Z,4.60
2022-11-05T09:43:31.733Z,1.48
2022-11-05T09:46:57.228Z,1.58
2022-11-05T09:50:09.469Z,1.98
2022-11-05T09:53:18.520Z,1.15
2022-11-05T09:56:28.774Z,1.05
2022-11-05T09:59:51.752Z,0.90
2022-11-05T10:03:19.521Z,1.00
2022-11-05T10:06:27.728Z,0.75
2022-11-05T10:09:45.659Z,0.85
2022-11-05T10:12:55.425Z,0.98
2022-11-05T10:16:20.838Z,0.90
2022-11-05T10:19:37.496Z,1.05
2022-11-05T10:22:48.287Z,0.80
2022-11-05T10:26:01.341Z,1.00
2022-11-05T10:32:36.185Z,0.90
2022-11-05T10:35:49.627Z,0.90
2022-11-05T10:39:00.871Z,0.80
2022-11-05T10:42:27.995Z,0.80
2022-11-05T10:46:20.607Z,0.90
2022-11-05T10:49:40.260Z,0.85
2022-11-05T10:53:01.848Z,0.55
2022-11-05T10:59:42.252Z,1.42
2022-11-05T11:02:56.278Z,1.05
2022-11-05T11:06:05.433Z,1.30
2022-11-05T11:09:22.241Z,1.17
2022-11-05T11:12:40.882Z,1.60
2022-11-05T11:15:51.017Z,1.23
2022-11-05T11:19:00.907Z,1.13
2022-11-05T11:22:06.540Z,1.55
2022-11-05T11:25:30.469Z,1.27
2022-11-05T11:28:46.540Z,1.58
2022-11-05T11:31:56.485Z,1.08
2022-11-05T11:35:03.395Z,0.90
2022-11-05T11:38:16.866Z,1.02
2022-11-05T11:41:31.140Z,1.00
2022-11-05T11:44:46.493Z,0.90
2022-11-05T11:47:52.385Z,0.80
2022-11-05T11:50:59.774Z,0.90
2022-11-05T11:54:05.979Z,0.80
2022-11-05T11:57:27.292Z,0.77
2022-11-05T12:00:41.767Z,1.00
2022-11-05T12:04:15.101Z,2.13
2022-11-05T12:07:20.896Z,0.80
2022-11-05T12:10:52.221Z,1.08
2022-11-05T12:14:06.675Z,1.10
2022-11-05T12:17:52.654Z,0.70
2022-11-05T12:21:50.886Z,0.73
2022-11-05T12:25:28.017Z,0.93
2022-11-05T12:32:31.357Z,0.85
2022-11-05T12:36:03.243Z,1.10
2022-11-05T12:39:33.114Z,1.88
2022-11-05T12:43:00.070Z,1.10
2022-11-05T12:46:53.806Z,1.00
2022-11-05T12:50:21.757Z,1.30
2022-11-05T12:53:32.547Z,1.00
2022-11-05T12:56:49.455Z,0.85
2022-11-05T13:00:03.142Z,1.27
2022-11-05T13:03:26.451Z,1.50
2022-11-05T13:06:41.568Z,2.05
2022-11-05T13:09:56.068Z,1.55
2022-11-05T13:13:13.994Z,1.30
2022-11-05T13:16:25.625Z,1.27
2022-11-05T13:23:16.687Z,2.03
2022-11-05T13:26:33.839Z,2.43
2022-11-05T13:29:48.534Z,1.40
2022-11-05T13:33:00.336Z,0.80
2022-11-05T13:36:31.188Z,0.85
2022-11-05T13:39:54.864Z,0.57
2022-11-05T13:43:24.985Z,0.45
2022-11-05T13:46:39.303Z,0.80
2022-11-05T13:50:31.704Z,1.48
2022-11-05T13:54:04.526Z,1.17
2022-11-05T13:57:47.185Z,1.38
2022-11-05T14:01:15.774Z,1.52
2022-11-05T14:04:44.175Z,1.23
2022-11-05T14:07:50.246Z,1.50
2022-11-05T14:11:05.354Z,1.33
2022-11-05T14:14:29.244Z,1.25
2022-11-05T14:18:02.054Z,1.73
2022-11-05T14:21:27.586Z,2.03
2022-11-05T14:24:40.756Z,2.40
2022-11-05T14:27:49.551Z,2.25
2022-11-05T14:30:54.763Z,3.25
2022-11-05T14:34:11.779Z,3.70
2022-11-05T14:37:40.537Z,3.72
2022-11-05T14:40:47.945Z,4.85
2022-11-05T14:44:06.149Z,5.03
2022-11-05T14:47:21.892Z,4.40
2022-11-05T14:50:36.480Z,5.30
2022-11-05T14:53:42.264Z,5.57
2022-11-05T14:57:00.229Z,5.00
2022-11-05T15:00:28.684Z,4.53
2022-11-05T15:03:47.044Z,4.57
2022-11-05T15:07:25.423Z,4.88
2022-11-05T15:10:35.830Z,4.45
2022-11-05T15:13:51.638Z,4.75
2022-11-05T15:17:09.601Z,6.35
2022-11-05T15:20:20.630Z,4.88
2022-11-05T15:23:36.305Z,4.93
2022-11-05T15:27:02.894Z,5.32
2022-11-05T15:30:16.698Z,4.93
2022-11-05T15:33:23.617Z,5.70
2022-11-05T15:36:32.572Z,17.80
2022-11-05T15:39:42.052Z,15.40
2022-11-05T15:43:07.502Z,14.43
2022-11-05T15:46:17.387Z,18.73
2022-11-05T15:49:23.227Z,11.23
2022-11-05T15:52:36.716Z,10.05
2022-11-05T15:55:57.391Z,8.43
2022-11-05T15:59:04.609Z,5.78
2022-11-05T16:02:33.491Z,6.60
2022-11-05T16:05:47.829Z,6.90
2022-11-05T16:08:53.421Z,6.05
2022-11-05T16:12:20.976Z,5.70
2022-11-05T16:15:32.460Z,5.68
2022-11-05T16:18:40.457Z,6.47
2022-11-05T16:21:55.110Z,6.07
2022-11-05T16:25:00.330Z,6.32
2022-11-05T16:28:28.133Z,6.85
2022-11-05T16:31:33.632Z,6.40
2022-11-05T16:34:42.098Z,13.43
2022-11-05T16:37:52.072Z,66.03
2022-11-05T16:40:59.469Z,25.65
2022-11-05T16:44:04.916Z,41.97
2022-11-05T16:47:10.309Z,35.88
2022-11-05T16:50:27.259Z,23.05
2022-11-05T16:53:33.073Z,22.65
2022-11-05T16:56:40.361Z,27.67
2022-11-05T16:59:45.955Z,24.45
2022-11-05T17:02:52.459Z,35.63
2022-11-05T17:05:57.664Z,30.83
2022-11-05T17:09:03.122Z,20.67
2022-11-05T17:12:13.884Z,14.43
2022-11-05T17:15:20.893Z,15.13
2022-11-05T17:18:26.584Z,11.20
2022-11-05T17:21:33.728Z,12.63
2022-11-05T17:24:39.294Z,9.13
2022-11-05T17:27:44.925Z,10.32
2022-11-05T17:30:53.176Z,12.52
2022-11-05T17:34:00.380Z,11.07
2022-11-05T17:37:05.892Z,9.98
2022-11-05T17:40:17.846Z,11.05
2022-11-05T17:46:28.681Z,10.10
2022-11-05T17:49:34.713Z,9.82
2022-11-05T17:52:40.106Z,9.35
2022-11-05T17:55:47.202Z,9.48
2022-11-05T17:58:55.319Z,8.60
2022-11-05T18:02:01.302Z,9.35
2022-11-05T18:05:07.734Z,8.68
2022-11-05T18:08:13.309Z,10.45
2022-11-05T18:11:18.851Z,9.80
2022-11-05T18:14:25.165Z,9.30
2022-11-05T18:17:30.817Z,10.07
2022-11-05T18:20:36.365Z,8.85
2022-11-05T18:23:42.397Z,10.63
2022-11-05T18:26:48.148Z,9.20
2022-11-05T18:29:55.106Z,9.90
2022-11-05T18:33:00.260Z,9.75
2022-11-05T18:36:06.280Z,17.92
2022-11-05T18:39:12.699Z,13.05
2022-11-05T18:42:21.199Z,12.02
2022-11-05T18:45:29.690Z,9.50
2022-11-05T18:48:36.939Z,9.65
2022-11-05T18:51:43.087Z,14.13
2022-11-05T18:54:49.619Z,17.15
2022-11-05T18:57:54.812Z,13.82
2022-11-05T19:01:06.301Z,12.10
2022-11-05T19:04:12.672Z,10.95
2022-11-05T19:07:19.632Z,9.95
2022-11-05T19:10:25.399Z,9.75
2022-11-05T19:13:31.127Z,10.27
2022-11-05T19:16:36.790Z,11.07
2022-11-05T19:19:42.432Z,10.85
2022-11-05T19:22:47.934Z,12.88
2022-11-05T19:25:55.348Z,12.00
2022-11-05T19:29:02.590Z,10.63
2022-11-05T19:32:09.902Z,10.27
2022-11-05T19:35:15.645Z,8.82
2022-11-05T19:38:21.031Z,7.78
2022-11-05T19:41:27.179Z,7.55
2022-11-05T19:44:32.677Z,7.10
2022-11-05T19:47:38.368Z,7.35
2022-11-05T19:50:43.931Z,6.30
2022-11-05T19:53:51.754Z,6.38
2022-11-05T19:56:57.545Z,7.32
2022-11-05T20:00:05.216Z,7.63
2022-11-05T20:03:16.168Z,7.15
2022-11-05T20:06:25.975Z,7.22
2022-11-05T20:09:31.401Z,8.32
2022-11-05T20:12:36.679Z,7.25
2022-11-05T20:15:42.315Z,7.45
2022-11-05T20:18:48.156Z,10.00
2022-11-05T20:21:53.751Z,7.85
2022-11-05T20:24:59.238Z,7.53
2022-11-05T20:28:05.544Z,9.60
2022-11-05T20:31:14.246Z,7.47
2022-11-05T20:34:19.824Z,9.07
2022-11-05T20:37:25.043Z,8.90
2022-11-05T20:40:30.264Z,8.07
2022-11-05T20:43:36.537Z,7.32
2022-11-05T20:46:42.384Z,7.43
2022-11-05T20:49:47.688Z,7.50
2022-11-05T20:52:53.086Z,7.45
2022-11-05T20:56:00.551Z,7.75
2022-11-05T20:59:09.347Z,8.70
2022-11-05T21:02:14.890Z,9.13
2022-11-05T21:05:20.706Z,9.52
2022-11-05T21:08:29.004Z,8.32
2022-11-05T21:11:54.924Z,8.55
2022-11-05T21:15:00.851Z,10.70
2022-11-05T21:18:06.374Z,9.73
2022-11-05T21:21:16.765Z,7.95
2022-11-05T21:24:22.148Z,7.45
2022-11-05T21:27:27.664Z,6.75
2022-11-05T21:30:33.793Z,7.95
2022-11-05T21:33:40.763Z,7.55
2022-11-05T21:36:47.586Z,7.65
2022-11-05T21:39:52.640Z,7.75
2022-11-05T21:42:57.829Z,8.30
2022-11-05T21:46:04.849Z,6.45
2022-11-05T21:49:10.540Z,6.65
2022-11-05T21:52:34.896Z,6.88
2022-11-05T21:56:00.365Z,6.80
2022-11-05T21:59:24.773Z,7.82
2022-11-05T22:02:30.966Z,8.60
2022-11-05T22:05:36.458Z,8.00
2022-11-05T22:08:41.889Z,8.80
2022-11-05T22:11:47.648Z,8.27
2022-11-05T22:14:53.469Z,7.38
2022-11-05T22:17:59.061Z,8.13
2022-11-05T22:21:04.250Z,7.15
2022-11-05T22:24:09.712Z,8.23
2022-11-05T22:27:18.807Z,7.97
2022-11-05T22:30:24.322Z,8.27
2022-11-05T22:33:29.467Z,6.95
2022-11-05T22:36:35.062Z,7.88
2022-11-05T22:39:40.705Z,7.13
2022-11-05T22:42:46.480Z,7.70
2022-11-05T22:45:51.971Z,7.75
2022-11-05T22:48:58.704Z,7.55
2022-11-05T22:52:04.797Z,8.10
2022-11-05T22:55:11.001Z,7.22
2022-11-05T22:58:16.106Z,8.63
2022-11-05T23:01:22.707Z,8.23
2022-11-05T23:04:28.687Z,7.65
2022-11-05T23:07:52.945Z,6.75
2022-11-05T23:11:16.395Z,8.00
2022-11-05T23:14:21.586Z,8.43
2022-11-05T23:17:45.848Z,8.05
2022-11-05T23:21:09.494Z,7.32
2022-11-05T23:24:14.762Z,7.25
2022-11-05T23:27:20.164Z,7.30
2022-11-05T23:30:27.761Z,7.60
2022-11-05T23:33:35.230Z,6.95
2022-11-05T23:36:59.269Z,7.70
2022-11-05T23:40:08.288Z,7.63
2022-11-05T23:43:32.148Z,7.43
2022-11-05T23:46:56.199Z,6.57
2022-11-05T23:50:01.260Z,6.38
2022-11-05T23:53:07.951Z,5.63
2022-11-05T23:56:15.738Z,6.03
2022-11-05T23:59:21.488Z,6.63
